createdAt,value
2018-06-09T00:00:59.197Z,99.90
2018-06-09T00:05:55.102Z,99.90
2018-06-09T00:08:23.186Z,99.90
2018-06-09T00:10:51.218Z,99.90
2018-06-09T00:15:47.133Z,99.90
2018-06-09T00:18:15.189Z,99.90
2018-06-09T00:20:43.229Z,99.90
2018-06-09T00:23:11.299Z,99.90
2018-06-09T00:25:39.349Z,99.90
2018-06-09T00:30:35.390Z,99.90
2018-06-09T00:37:59.649Z,99.90
2018-06-09T00:40:27.706Z,99.90
2018-06-09T00:42:56.065Z,99.90
2018-06-09T00:45:24.131Z,99.90
2018-06-09T00:47:52.205Z,99.90
2018-06-09T00:50:20.280Z,99.90
2018-06-09T00:57:44.052Z,99.90
2018-06-09T01:00:12.105Z,99.90
2018-06-09T01:02:40.161Z,99.90
2018-06-09T01:07:36.102Z,99.90
2018-06-09T01:12:31.994Z,99.90
2018-06-09T01:15:00.052Z,99.90
2018-06-09T01:17:28.106Z,99.90
2018-06-09T01:19:56.236Z,99.90
2018-06-09T01:22:24.273Z,99.90
2018-06-09T01:24:52.855Z,99.90
2018-06-09T01:27:20.933Z,99.90
2018-06-09T01:29:49.020Z,99.90
2018-06-09T01:34:45.139Z,99.90
2018-06-09T01:37:13.222Z,99.90
2018-06-09T01:39:41.266Z,99.90
2018-06-09T01:42:09.337Z,99.90
2018-06-09T01:44:37.421Z,99.90
2018-06-09T01:47:05.616Z,99.90
2018-06-09T01:52:01.493Z,99.90
2018-06-09T01:54:29.555Z,99.90
2018-06-09T01:56:57.625Z,99.90
2018-06-09T01:59:25.664Z,99.90
2018-06-09T02:01:53.763Z,99.90
2018-06-09T02:04:21.798Z,99.90
2018-06-09T02:06:50.093Z,99.90
2018-06-09T02:11:46.006Z,99.90
2018-06-09T02:14:14.414Z,99.90
2018-06-09T02:16:42.466Z,99.90
2018-06-09T02:19:10.509Z,99.90
2018-06-09T02:21:38.587Z,99.90
2018-06-09T02:24:06.617Z,99.90
2018-06-09T02:29:02.715Z,99.90
2018-06-09T02:33:59.352Z,99.90
2018-06-09T02:38:55.312Z,99.90
2018-06-09T02:41:23.402Z,99.90
2018-06-09T02:43:51.442Z,99.90
2018-06-09T02:46:19.708Z,99.90
2018-06-09T02:48:47.954Z,99.90
2018-06-09T02:51:15.997Z,99.90
2018-06-09T02:53:44.049Z,99.90
2018-06-09T02:56:12.118Z,99.90
2018-06-09T02:58:40.202Z,99.90
2018-06-09T03:01:08.345Z,99.90
2018-06-09T03:03:37.002Z,99.90
2018-06-09T03:06:05.052Z,99.90
2018-06-09T03:08:33.110Z,99.90
2018-06-09T03:11:01.153Z,99.90
2018-06-09T03:13:29.218Z,99.90
2018-06-09T03:15:57.946Z,99.90
2018-06-09T03:20:54.065Z,99.90
2018-06-09T03:23:22.133Z,99.90
2018-06-09T03:25:50.178Z,99.90
2018-06-09T03:33:13.922Z,99.90
2018-06-09T03:38:09.922Z,99.90
2018-06-09T03:40:37.967Z,99.90
2018-06-09T03:43:06.065Z,99.90
2018-06-09T03:48:02.022Z,99.90
2018-06-09T03:55:26.121Z,99.90
2018-06-09T03:57:54.219Z,99.90
2018-06-09T04:00:22.257Z,99.90
2018-06-09T04:02:50.350Z,99.90
2018-06-09T04:05:18.393Z,99.90
2018-06-09T04:07:46.501Z,99.90
2018-06-09T04:10:14.569Z,99.90
2018-06-09T04:12:42.603Z,99.90
2018-06-09T04:15:10.668Z,99.90
2018-06-09T04:17:38.708Z,99.90
2018-06-09T04:20:06.770Z,99.90
2018-06-09T04:22:34.822Z,99.90
2018-06-09T04:25:02.882Z,99.90
2018-06-09T04:27:31.102Z,99.90
2018-06-09T04:34:55.262Z,99.90
2018-06-09T04:37:23.510Z,99.90
2018-06-09T04:39:51.590Z,99.90
2018-06-09T04:42:19.608Z,99.90
2018-06-09T04:44:47.654Z,99.90
2018-06-09T04:47:15.722Z,99.90
2018-06-09T04:49:43.776Z,99.90
2018-06-09T04:52:11.846Z,99.90
2018-06-09T04:54:39.887Z,99.90
2018-06-09T04:57:07.949Z,99.90
2018-06-09T04:59:36.007Z,99.90
2018-06-09T05:04:32.106Z,99.90
2018-06-09T05:07:00.179Z,99.90
2018-06-09T05:14:24.181Z,99.90
2018-06-09T05:16:52.262Z,99.90
2018-06-09T05:26:44.210Z,99.90
2018-06-09T05:29:12.293Z,99.90
2018-06-09T05:31:40.354Z,99.90
2018-06-09T05:34:08.398Z,99.90
2018-06-09T05:36:36.433Z,99.90
2018-06-09T05:39:07.894Z,99.90
2018-06-09T05:41:36.041Z,99.90
2018-06-09T05:44:04.201Z,99.90
2018-06-09T05:46:32.259Z,99.90
2018-06-09T05:51:28.230Z,99.90
2018-06-09T05:53:56.306Z,99.90
2018-06-09T05:56:24.377Z,99.90
2018-06-09T05:58:52.416Z,99.90
2018-06-09T06:01:20.459Z,99.90
2018-06-09T06:06:16.710Z,99.90
2018-06-09T06:08:44.837Z,99.90
2018-06-09T06:11:12.894Z,99.90
2018-06-09T06:13:40.969Z,99.90
2018-06-09T06:16:09.038Z,99.90
2018-06-09T06:18:37.101Z,99.90
2018-06-09T06:21:05.153Z,99.90
2018-06-09T06:23:33.241Z,99.90
2018-06-09T06:26:01.302Z,99.90
2018-06-09T06:28:29.363Z,99.90
2018-06-09T06:33:25.278Z,99.90
2018-06-09T06:35:53.325Z,99.90
2018-06-09T06:40:49.333Z,99.90
2018-06-09T06:43:17.404Z,99.90
2018-06-09T06:45:45.450Z,99.90
2018-06-09T06:53:09.365Z,99.90
2018-06-09T06:55:37.425Z,99.90
2018-06-09T06:58:05.605Z,99.90
2018-06-09T07:00:33.673Z,99.90
2018-06-09T07:05:30.893Z,99.90
2018-06-09T07:10:26.805Z,99.90
2018-06-09T07:12:54.849Z,99.90
2018-06-09T07:15:22.914Z,99.90
2018-06-09T07:17:50.974Z,99.90
2018-06-09T07:20:19.926Z,99.90
2018-06-09T07:22:48.123Z,99.90
2018-06-09T07:25:16.285Z,99.90
2018-06-09T07:27:44.473Z,99.90
2018-06-09T07:32:40.490Z,99.90
2018-06-09T07:40:04.718Z,99.90
2018-06-09T07:42:32.927Z,99.90
2018-06-09T07:47:29.046Z,99.90
2018-06-09T07:49:57.312Z,99.90
2018-06-09T07:52:25.570Z,99.90
2018-06-09T07:57:22.576Z,99.90
2018-06-09T07:59:50.787Z,99.90
2018-06-09T08:09:42.962Z,99.90
2018-06-09T08:19:36.509Z,99.90
2018-06-09T08:22:04.700Z,99.90
2018-06-09T08:27:01.664Z,99.90
2018-06-09T08:29:29.865Z,99.90
2018-06-09T08:31:58.150Z,99.90
2018-06-09T08:34:26.406Z,99.90
2018-06-09T08:41:50.539Z,99.90
2018-06-09T08:44:18.801Z,99.90
2018-06-09T08:46:47.005Z,99.90
2018-06-09T08:49:15.218Z,99.90
2018-06-09T08:54:11.437Z,99.90
2018-06-09T08:59:07.710Z,99.90
2018-06-09T09:04:09.333Z,99.90
2018-06-09T09:06:37.398Z,99.90
2018-06-09T09:09:08.115Z,99.90
2018-06-09T09:11:36.350Z,99.90
2018-06-09T09:14:04.407Z,99.90
2018-06-09T09:16:32.525Z,99.90
2018-06-09T09:19:00.513Z,99.90
2018-06-09T09:21:28.574Z,99.90
2018-06-09T09:23:56.623Z,99.90
2018-06-09T09:26:24.698Z,99.90
2018-06-09T09:28:52.745Z,99.90
2018-06-09T09:36:16.623Z,99.90
2018-06-09T09:38:44.681Z,99.90
2018-06-09T09:41:12.920Z,99.90
2018-06-09T09:43:40.986Z,99.90
2018-06-09T09:46:09.146Z,99.90
2018-06-09T09:48:37.202Z,99.90
2018-06-09T09:51:05.398Z,99.90
2018-06-09T09:53:33.469Z,99.90
2018-06-09T09:56:02.532Z,99.90
2018-06-09T09:58:30.585Z,99.90
2018-06-09T10:00:58.642Z,99.90
2018-06-09T10:03:26.702Z,99.90
2018-06-09T10:05:54.814Z,99.90
2018-06-09T10:08:22.922Z,99.90
2018-06-09T10:10:51.028Z,99.90
2018-06-09T10:13:19.082Z,99.90
2018-06-09T10:15:47.135Z,99.90
2018-06-09T10:18:15.308Z,99.90
2018-06-09T10:20:43.754Z,99.90
2018-06-09T10:23:11.810Z,99.90
2018-06-09T10:25:39.937Z,99.90
2018-06-09T10:28:07.966Z,99.90
2018-06-09T10:30:36.027Z,99.90
2018-06-09T10:33:04.116Z,99.90
2018-06-09T10:38:00.051Z,99.90
2018-06-09T10:40:28.156Z,99.90
2018-06-09T10:42:56.201Z,99.90
2018-06-09T10:47:52.181Z,99.90
2018-06-09T10:50:20.250Z,99.90
2018-06-09T10:52:48.292Z,99.90
2018-06-09T10:55:16.367Z,99.90
2018-06-09T10:57:44.554Z,99.90
2018-06-09T11:00:12.813Z,99.90
2018-06-09T11:02:40.882Z,99.90
2018-06-09T11:05:08.925Z,99.90
2018-06-09T11:07:36.985Z,99.90
2018-06-09T11:10:05.086Z,99.90
2018-06-09T11:12:33.097Z,99.90
2018-06-09T11:15:02.537Z,99.90
2018-06-09T11:19:58.598Z,99.90
2018-06-09T11:22:26.668Z,99.90
2018-06-09T11:24:54.737Z,98.40
2018-06-09T11:27:24.578Z,98.70
2018-06-09T11:29:52.626Z,96.80
2018-06-09T11:32:20.678Z,97.50
2018-06-09T11:34:48.845Z,96.30
2018-06-09T11:37:16.894Z,96.30
2018-06-09T11:39:45.071Z,96.20
2018-06-09T11:42:13.198Z,96.60
2018-06-09T11:44:41.651Z,97.00
2018-06-09T11:47:09.712Z,96.90
2018-06-09T11:49:37.745Z,97.10
2018-06-09T11:52:06.021Z,97.00
2018-06-09T11:54:34.106Z,94.70
2018-06-09T11:57:02.266Z,94.80
2018-06-09T11:59:31.409Z,94.20
2018-06-09T12:02:01.324Z,94.50
2018-06-09T12:04:29.403Z,93.10
2018-06-09T12:06:57.445Z,94.40
2018-06-09T12:09:25.570Z,94.20
2018-06-09T12:11:54.723Z,92.70
2018-06-09T12:14:22.783Z,92.30
2018-06-09T12:16:50.857Z,92.50
2018-06-09T12:19:19.370Z,90.10
2018-06-09T12:21:48.378Z,89.60
2018-06-09T12:24:16.430Z,90.30
2018-06-09T12:26:44.527Z,90.50
2018-06-09T12:29:12.594Z,85.50
2018-06-09T12:31:40.650Z,83.50
2018-06-09T12:34:08.767Z,83.90
2018-06-09T12:36:36.821Z,82.10
2018-06-09T12:39:06.909Z,83.50
2018-06-09T12:41:35.006Z,77.50
2018-06-09T12:44:03.061Z,78.50
2018-06-09T12:46:31.113Z,79.50
2018-06-09T12:48:59.193Z,76.80
2018-06-09T12:51:27.249Z,78.10
2018-06-09T12:53:55.349Z,77.90
2018-06-09T12:56:23.398Z,74.10
2018-06-09T12:58:51.497Z,74.70
2018-06-09T13:01:19.554Z,74.30
2018-06-09T13:03:47.617Z,74.70
2018-06-09T13:06:15.669Z,73.20
2018-06-09T13:08:43.750Z,74.00
2018-06-09T13:11:11.792Z,71.80
2018-06-09T13:13:39.881Z,73.40
2018-06-09T13:16:07.970Z,74.40
2018-06-09T13:21:03.909Z,74.00
2018-06-09T13:23:31.949Z,72.90
2018-06-09T13:26:00.011Z,76.20
2018-06-09T13:28:28.098Z,74.50
2018-06-09T13:30:56.154Z,76.20
2018-06-09T13:33:24.216Z,76.80
2018-06-09T13:35:52.293Z,77.00
2018-06-09T13:38:20.309Z,77.90
2018-06-09T13:40:48.349Z,77.20
2018-06-09T13:43:16.423Z,78.60
2018-06-09T13:45:44.460Z,77.70
2018-06-09T13:48:12.545Z,78.60
2018-06-09T13:50:40.639Z,78.40
2018-06-09T13:53:08.697Z,79.40
2018-06-09T13:55:36.757Z,79.40
2018-06-09T13:58:05.458Z,80.60
2018-06-09T14:00:33.515Z,80.30
2018-06-09T14:03:01.553Z,81.30
2018-06-09T14:05:29.618Z,81.70
2018-06-09T14:07:57.658Z,82.30
2018-06-09T14:13:00.177Z,80.40
2018-06-09T14:15:28.273Z,76.80
2018-06-09T14:17:56.455Z,77.40
2018-06-09T14:20:24.695Z,77.80
2018-06-09T14:22:52.894Z,79.00
2018-06-09T14:25:21.153Z,77.50
2018-06-09T14:27:49.330Z,77.90
2018-06-09T14:30:17.553Z,74.70
2018-06-09T14:32:45.782Z,75.40
2018-06-09T14:35:13.921Z,75.90
2018-06-09T14:37:42.172Z,75.20
2018-06-09T14:40:10.409Z,76.70
2018-06-09T14:42:38.600Z,76.10
2018-06-09T14:45:06.885Z,75.90
2018-06-09T14:47:35.184Z,77.00
2018-06-09T14:50:03.346Z,76.90
2018-06-09T14:52:31.585Z,77.40
2018-06-09T14:54:59.740Z,77.00
2018-06-09T14:57:28.077Z,77.00
2018-06-09T14:59:56.304Z,76.30
2018-06-09T15:02:24.521Z,75.60
2018-06-09T15:04:52.651Z,76.30
2018-06-09T15:07:20.810Z,76.30
2018-06-09T15:09:49.073Z,76.50
2018-06-09T15:12:17.261Z,77.90
2018-06-09T15:14:45.478Z,78.70
2018-06-09T15:17:13.666Z,78.10
2018-06-09T15:19:41.808Z,78.50
2018-06-09T15:22:10.075Z,78.50
2018-06-09T15:24:38.261Z,78.00
2018-06-09T15:27:06.499Z,77.40
2018-06-09T15:29:34.849Z,77.90
2018-06-09T15:32:03.457Z,78.90
2018-06-09T15:34:31.746Z,79.20
2018-06-09T15:36:59.866Z,78.60
2018-06-09T15:39:28.007Z,78.80
2018-06-09T15:41:56.371Z,79.50
2018-06-09T15:44:24.619Z,78.30
2018-06-09T15:46:52.828Z,78.00
2018-06-09T15:49:21.060Z,77.30
2018-06-09T15:51:49.229Z,77.40
2018-06-09T15:54:17.620Z,78.50
2018-06-09T15:56:45.678Z,79.20
2018-06-09T15:59:13.754Z,79.10
2018-06-09T16:04:09.663Z,78.90
2018-06-09T16:06:37.748Z,80.10
2018-06-09T16:09:07.578Z,78.10
2018-06-09T16:11:35.730Z,76.90
2018-06-09T16:14:03.814Z,77.60
2018-06-09T16:16:31.873Z,76.30
2018-06-09T16:19:00.061Z,76.20
2018-06-09T16:21:28.178Z,76.40
2018-06-09T16:23:56.327Z,74.90
2018-06-09T16:26:24.378Z,75.10
2018-06-09T16:28:52.443Z,74.00
2018-06-09T16:33:48.474Z,70.40
2018-06-09T16:36:16.687Z,71.50
2018-06-09T16:38:44.738Z,72.10
2018-06-09T16:41:12.998Z,72.90
2018-06-09T16:43:41.069Z,73.10
2018-06-09T16:46:09.330Z,73.70
2018-06-09T16:48:37.566Z,74.90
2018-06-09T16:51:05.720Z,75.10
2018-06-09T16:53:33.742Z,76.10
2018-06-09T16:56:01.796Z,76.70
2018-06-09T16:58:30.621Z,76.20
2018-06-09T17:00:58.675Z,77.00
2018-06-09T17:03:26.756Z,76.20
2018-06-09T17:05:54.825Z,75.50
2018-06-09T17:08:22.934Z,75.80
2018-06-09T17:10:51.042Z,74.70
2018-06-09T17:13:19.282Z,75.00
2018-06-09T17:15:47.313Z,75.50
2018-06-09T17:18:15.403Z,76.00
2018-06-09T17:23:11.382Z,75.20
2018-06-09T17:25:39.530Z,73.40
2018-06-09T17:28:07.589Z,72.40
2018-06-09T17:30:35.638Z,71.70
2018-06-09T17:33:03.818Z,72.30
2018-06-09T17:37:59.989Z,72.30
2018-06-09T17:40:28.074Z,71.90
2018-06-09T17:42:56.437Z,72.00
2018-06-09T17:45:24.518Z,71.40
2018-06-09T17:47:52.582Z,71.10
2018-06-09T17:50:20.857Z,71.60
2018-06-09T17:52:48.921Z,71.60
2018-06-09T17:55:16.982Z,71.70
2018-06-09T17:57:45.060Z,72.40
2018-06-09T18:00:13.242Z,72.40
2018-06-09T18:02:41.350Z,72.20
2018-06-09T18:05:09.429Z,73.10
2018-06-09T18:07:37.761Z,73.90
2018-06-09T18:10:05.835Z,74.20
2018-06-09T18:12:33.885Z,74.50
2018-06-09T18:15:01.935Z,74.30
2018-06-09T18:17:30.069Z,74.80
2018-06-09T18:19:58.138Z,76.40
2018-06-09T18:22:26.192Z,73.70
2018-06-09T18:24:54.243Z,74.40
2018-06-09T18:29:50.133Z,74.30
2018-06-09T18:32:18.237Z,75.10
2018-06-09T18:34:46.330Z,75.40
2018-06-09T18:37:14.385Z,75.60
2018-06-09T18:39:42.449Z,76.50
2018-06-09T18:42:10.633Z,76.70
2018-06-09T18:44:38.690Z,76.60
2018-06-09T18:47:06.738Z,77.20
2018-06-09T18:49:34.836Z,77.40
2018-06-09T18:52:02.890Z,77.40
2018-06-09T18:54:31.167Z,77.80
2018-06-09T18:56:59.221Z,78.80
2018-06-09T18:59:27.304Z,77.90
2018-06-09T19:01:55.351Z,78.30
2018-06-09T19:04:23.397Z,78.70
2018-06-09T19:06:51.446Z,79.30
2018-06-09T19:09:19.513Z,79.30
2018-06-09T19:14:15.448Z,79.60
2018-06-09T19:16:43.492Z,79.10
2018-06-09T19:19:11.549Z,79.50
2018-06-09T19:21:39.635Z,80.20
2018-06-09T19:24:07.730Z,80.00
2018-06-09T19:26:35.805Z,80.40
2018-06-09T19:29:03.867Z,81.20
2018-06-09T19:31:31.981Z,81.40
2018-06-09T19:36:28.117Z,82.50
2018-06-09T19:38:56.687Z,82.40
2018-06-09T19:41:24.748Z,82.60
2018-06-09T19:43:53.037Z,83.20
2018-06-09T19:46:21.095Z,83.30
2018-06-09T19:48:49.147Z,83.50
2018-06-09T19:51:17.209Z,83.70
2018-06-09T19:53:46.169Z,83.80
2018-06-09T19:56:14.326Z,84.50
2018-06-09T20:01:10.425Z,84.60
2018-06-09T20:03:38.478Z,84.60
2018-06-09T20:08:34.428Z,84.90
2018-06-09T20:11:02.631Z,84.90
2018-06-09T20:13:30.694Z,84.80
2018-06-09T20:15:58.790Z,84.40
2018-06-09T20:18:26.892Z,84.70
2018-06-09T20:20:54.954Z,84.20
2018-06-09T20:23:23.073Z,83.80
2018-06-09T20:25:51.176Z,83.90
2018-06-09T20:28:19.298Z,83.70
2018-06-09T20:30:47.367Z,83.30
2018-06-09T20:33:15.461Z,83.70
2018-06-09T20:38:11.470Z,82.20
2018-06-09T20:40:39.546Z,81.80
2018-06-09T20:43:07.721Z,81.20
2018-06-09T20:45:35.764Z,81.00
2018-06-09T20:48:04.609Z,81.10
2018-06-09T20:50:33.569Z,80.60
2018-06-09T20:53:01.621Z,80.70
2018-06-09T20:55:29.697Z,80.20
2018-06-09T20:57:57.771Z,80.50
2018-06-09T21:00:25.815Z,80.20
2018-06-09T21:02:54.003Z,79.20
2018-06-09T21:07:56.521Z,79.50
2018-06-09T21:10:24.609Z,79.20
2018-06-09T21:12:52.653Z,79.60
2018-06-09T21:15:20.722Z,79.80
2018-06-09T21:17:48.771Z,79.60
2018-06-09T21:22:44.910Z,79.50
2018-06-09T21:25:13.861Z,79.30
2018-06-09T21:27:47.237Z,79.50
2018-06-09T21:30:16.453Z,80.40
2018-06-09T21:32:47.165Z,78.20
2018-06-09T21:35:32.157Z,77.00
2018-06-09T21:38:05.653Z,76.80
2018-06-09T21:40:39.094Z,76.60
2018-06-09T21:43:12.766Z,77.30
2018-06-09T21:45:46.193Z,77.40
2018-06-09T21:48:14.294Z,76.50
2018-06-09T21:50:42.366Z,76.30
2018-06-09T21:55:38.566Z,77.00
2018-06-09T21:58:06.617Z,77.00
2018-06-09T22:00:34.688Z,77.70
2018-06-09T22:03:02.718Z,78.10
2018-06-09T22:05:30.818Z,78.10
2018-06-09T22:07:58.908Z,79.20
2018-06-09T22:10:26.973Z,79.50
2018-06-09T22:12:55.034Z,79.90
2018-06-09T22:15:23.094Z,80.60
2018-06-09T22:17:51.186Z,80.10
2018-06-09T22:22:47.446Z,80.10
2018-06-09T22:25:19.754Z,80.80
2018-06-09T22:27:47.798Z,79.90
2018-06-09T22:30:15.881Z,79.70
2018-06-09T22:32:43.974Z,79.80
2018-06-09T22:35:12.158Z,80.30
2018-06-09T22:37:40.259Z,79.50
2018-06-09T22:40:08.362Z,79.40
2018-06-09T22:42:36.402Z,78.80
2018-06-09T22:45:04.482Z,79.10
2018-06-09T22:47:32.519Z,79.70
2018-06-09T22:50:00.618Z,80.10
2018-06-09T22:52:28.855Z,80.40
2018-06-09T22:57:24.790Z,81.10
2018-06-09T22:59:52.837Z,81.60
2018-06-09T23:02:20.891Z,81.50
2018-06-09T23:04:48.962Z,81.90
2018-06-09T23:07:17.026Z,82.50
2018-06-09T23:09:45.080Z,82.90
2018-06-09T23:12:13.309Z,83.30
2018-06-09T23:14:41.367Z,83.20
2018-06-09T23:17:09.434Z,83.90
2018-06-09T23:19:37.520Z,84.50
2018-06-09T23:22:05.943Z,85.00
2018-06-09T23:27:02.186Z,85.80
2018-06-09T23:29:30.463Z,86.00
2018-06-09T23:31:58.528Z,86.50
2018-06-09T23:34:26.572Z,86.50
2018-06-09T23:39:23.110Z,87.50
2018-06-09T23:41:51.181Z,88.20
2018-06-09T23:44:19.248Z,89.30
2018-06-09T23:49:15.493Z,89.50
2018-06-09T23:51:43.545Z,90.00
2018-06-09T23:54:11.626Z,90.40
2018-06-09T23:56:39.698Z,90.90
2018-06-09T23:59:07.802Z,90.80
